sensor_id;sensor_type;location;lat;lon;timestamp;temperature;humidity
41168;DHT22;26906;45.658;9.272;2024-01-07T08:27:42;9.50;99.90
41168;DHT22;26906;45.658;9.272;2024-01-07T08:30:09;9.50;99.90
41168;DHT22;26906;45.658;9.272;2024-01-07T08:32:35;9.60;99.90
41168;DHT22;26906;45.658;9.272;2024-01-07T08:35:01;9.60;99.90
41168;DHT22;26906;45.658;9.272;2024-01-07T08:37:27;9.70;99.90
41168;DHT22;26906;45.658;9.272;2024-01-07T08:39:52;9.70;99.90
41168;DHT22;26906;45.658;9.272;2024-01-07T08:42:18;9.80;99.90
41168;DHT22;26906;45.658;9.272;2024-01-07T08:44:45;9.80;99.90
41168;DHT22;26906;45.658;9.272;2024-01-07T08:47:10;9.90;99.90
41168;DHT22;26906;45.658;9.272;2024-01-07T08:49:36;9.90;99.90
41168;DHT22;26906;45.658;9.272;2024-01-07T08:52:04;9.90;99.90
41168;DHT22;26906;45.658;9.272;2024-01-07T08:54:29;9.90;99.90
41168;DHT22;26906;45.658;9.272;2024-01-07T08:56:55;9.90;99.90
41168;DHT22;26906;45.658;9.272;2024-01-07T08:59:21;10.00;99.90
41168;DHT22;26906;45.658;9.272;2024-01-07T09:01:47;10.10;99.90
41168;DHT22;26906;45.658;9.272;2024-01-07T09:04:12;10.00;99.90
41168;DHT22;26906;45.658;9.272;2024-01-07T09:06:38;9.90;99.90
41168;DHT22;26906;45.658;9.272;2024-01-07T09:09:04;9.90;99.90
41168;DHT22;26906;45.658;9.272;2024-01-07T09:11:33;9.90;99.90
41168;DHT22;26906;45.658;9.272;2024-01-07T09:13:59;9.90;99.90
41168;DHT22;26906;45.658;9.272;2024-01-07T09:16:25;9.80;99.90
41168;DHT22;26906;45.658;9.272;2024-01-07T09:18:52;9.80;99.90
41168;DHT22;26906;45.658;9.272;2024-01-07T09:21:17;9.80;99.90
41168;DHT22;26906;45.658;9.272;2024-01-07T09:23:44;9.90;99.90
41168;DHT22;26906;45.658;9.272;2024-01-07T09:26:11;9.90;99.90
41168;DHT22;26906;45.658;9.272;2024-01-07T09:28:37;9.90;99.90
41168;DHT22;26906;45.658;9.272;2024-01-07T09:31:03;10.00;99.90
41168;DHT22;26906;45.658;9.272;2024-01-07T09:33:28;10.00;99.90
41168;DHT22;26906;45.658;9.272;2024-01-07T09:35:54;10.00;99.90
41168;DHT22;26906;45.658;9.272;2024-01-07T09:38:20;10.00;99.90
41168;DHT22;26906;45.658;9.272;2024-01-07T09:40:46;10.00;99.90
41168;DHT22;26906;45.658;9.272;2024-01-07T09:43:12;10.10;99.90
41168;DHT22;26906;45.658;9.272;2024-01-07T09:45:39;10.20;99.90
41168;DHT22;26906;45.658;9.272;2024-01-07T09:48:06;10.20;99.90
41168;DHT22;26906;45.658;9.272;2024-01-07T09:50:32;10.30;99.90
41168;DHT22;26906;45.658;9.272;2024-01-07T09:52:59;10.30;99.90
41168;DHT22;26906;45.658;9.272;2024-01-07T09:55:43;10.30;99.90
41168;DHT22;26906;45.658;9.272;2024-01-07T09:58:09;10.30;99.90
41168;DHT22;26906;45.658;9.272;2024-01-07T10:00:36;10.30;99.90
41168;DHT22;26906;45.658;9.272;2024-01-07T10:03:02;10.30;99.90
41168;DHT22;26906;45.658;9.272;2024-01-07T10:05:28;10.30;99.90
41168;DHT22;26906;45.658;9.272;2024-01-07T10:07:55;10.30;99.90
41168;DHT22;26906;45.658;9.272;2024-01-07T10:10:23;10.30;99.90
41168;DHT22;26906;45.658;9.272;2024-01-07T10:12:49;10.30;99.90
41168;DHT22;26906;45.658;9.272;2024-01-07T10:15:18;10.40;99.90
41168;DHT22;26906;45.658;9.272;2024-01-07T10:17:46;10.40;99.90
41168;DHT22;26906;45.658;9.272;2024-01-07T10:20:11;10.40;99.90
41168;DHT22;26906;45.658;9.272;2024-01-07T10:22:38;10.40;99.90
41168;DHT22;26906;45.658;9.272;2024-01-07T10:25:05;10.40;99.90
41168;DHT22;26906;45.658;9.272;2024-01-07T10:27:38;10.40;99.90
41168;DHT22;26906;45.658;9.272;2024-01-07T10:30:04;10.40;99.90
41168;DHT22;26906;45.658;9.272;2024-01-07T10:32:30;10.40;99.90
41168;DHT22;26906;45.658;9.272;2024-01-07T10:35:03;10.30;99.90
41168;DHT22;26906;45.658;9.272;2024-01-07T10:37:30;10.30;99.90
41168;DHT22;26906;45.658;9.272;2024-01-07T10:39:58;10.40;99.90
41168;DHT22;26906;45.658;9.272;2024-01-07T10:42:33;10.40;99.90
41168;DHT22;26906;45.658;9.272;2024-01-07T10:45:02;10.50;99.90
41168;DHT22;26906;45.658;9.272;2024-01-07T10:47:30;10.60;99.90
41168;DHT22;26906;45.658;9.272;2024-01-07T10:49:58;10.60;99.90
41168;DHT22;26906;45.658;9.272;2024-01-07T10:52:27;10.80;99.90
41168;DHT22;26906;45.658;9.272;2024-01-07T10:54:57;10.80;99.90
41168;DHT22;26906;45.658;9.272;2024-01-07T11:00:07;10.90;99.90
41168;DHT22;26906;45.658;9.272;2024-01-07T11:02:44;10.90;99.90
41168;DHT22;26906;45.658;9.272;2024-01-07T11:05:40;10.90;99.90
41168;DHT22;26906;45.658;9.272;2024-01-07T11:08:43;10.80;99.90
41168;DHT22;26906;45.658;9.272;2024-01-07T11:11:22;10.80;99.90
41168;DHT22;26906;45.658;9.272;2024-01-07T11:13:50;10.80;99.90
41168;DHT22;26906;45.658;9.272;2024-01-07T11:16:44;10.70;99.90
41168;DHT22;26906;45.658;9.272;2024-01-07T11:19:14;10.90;99.90
41168;DHT22;26906;45.658;9.272;2024-01-07T11:21:40;10.80;99.90
41168;DHT22;26906;45.658;9.272;2024-01-07T11:24:06;10.60;99.90
41168;DHT22;26906;45.658;9.272;2024-01-07T11:26:31;10.60;99.90
41168;DHT22;26906;45.658;9.272;2024-01-07T11:28:58;10.70;99.90
41168;DHT22;26906;45.658;9.272;2024-01-07T11:31:47;10.80;99.90
41168;DHT22;26906;45.658;9.272;2024-01-07T11:34:38;10.70;99.90
41168;DHT22;26906;45.658;9.272;2024-01-07T11:37:09;10.70;99.90
41168;DHT22;26906;45.658;9.272;2024-01-07T11:39:35;10.80;99.90
41168;DHT22;26906;45.658;9.272;2024-01-07T11:42:03;10.90;99.90
41168;DHT22;26906;45.658;9.272;2024-01-07T11:44:29;10.90;99.90
41168;DHT22;26906;45.658;9.272;2024-01-07T11:46:55;10.90;99.90
41168;DHT22;26906;45.658;9.272;2024-01-07T11:49:21;10.90;99.90
41168;DHT22;26906;45.658;9.272;2024-01-07T11:51:47;10.90;99.90
41168;DHT22;26906;45.658;9.272;2024-01-07T11:54:13;11.00;99.90
41168;DHT22;26906;45.658;9.272;2024-01-07T11:56:40;11.00;99.90
41168;DHT22;26906;45.658;9.272;2024-01-07T11:59:05;10.90;99.90
41168;DHT22;26906;45.658;9.272;2024-01-07T12:01:33;10.80;99.90
41168;DHT22;26906;45.658;9.272;2024-01-07T12:03:59;10.80;99.90
41168;DHT22;26906;45.658;9.272;2024-01-07T12:06:25;10.80;99.90
41168;DHT22;26906;45.658;9.272;2024-01-07T12:08:51;10.90;99.90
41168;DHT22;26906;45.658;9.272;2024-01-07T12:11:16;11.00;99.90
41168;DHT22;26906;45.658;9.272;2024-01-07T12:13:44;11.20;99.90
41168;DHT22;26906;45.658;9.272;2024-01-07T12:16:10;11.20;99.90
41168;DHT22;26906;45.658;9.272;2024-01-07T12:18:38;11.20;99.90
41168;DHT22;26906;45.658;9.272;2024-01-07T12:21:04;11.20;99.90
41168;DHT22;26906;45.658;9.272;2024-01-07T12:23:35;11.20;99.90
41168;DHT22;26906;45.658;9.272;2024-01-07T12:26:10;11.10;99.90
41168;DHT22;26906;45.658;9.272;2024-01-07T12:28:37;11.10;99.90
41168;DHT22;26906;45.658;9.272;2024-01-07T12:31:05;11.20;99.90
41168;DHT22;26906;45.658;9.272;2024-01-07T12:33:31;11.20;99.90
41168;DHT22;26906;45.658;9.272;2024-01-07T12:35:59;11.10;99.90
41168;DHT22;26906;45.658;9.272;2024-01-07T12:38:26;11.20;99.90
41168;DHT22;26906;45.658;9.272;2024-01-07T12:40:53;11.30;99.90
41168;DHT22;26906;45.658;9.272;2024-01-07T12:43:19;11.30;99.90
41168;DHT22;26906;45.658;9.272;2024-01-07T12:45:44;11.40;99.90
41168;DHT22;26906;45.658;9.272;2024-01-07T12:48:12;11.40;99.90
41168;DHT22;26906;45.658;9.272;2024-01-07T12:50:37;11.40;99.90
41168;DHT22;26906;45.658;9.272;2024-01-07T12:53:03;11.40;99.90
41168;DHT22;26906;45.658;9.272;2024-01-07T12:55:29;11.40;99.90
41168;DHT22;26906;45.658;9.272;2024-01-07T12:57:55;11.40;99.90
41168;DHT22;26906;45.658;9.272;2024-01-07T13:00:22;11.40;99.90
41168;DHT22;26906;45.658;9.272;2024-01-07T13:02:49;11.50;99.90
41168;DHT22;26906;45.658;9.272;2024-01-07T13:05:14;11.60;99.90
41168;DHT22;26906;45.658;9.272;2024-01-07T13:07:40;11.60;99.90
41168;DHT22;26906;45.658;9.272;2024-01-07T13:10:06;11.50;99.90
41168;DHT22;26906;45.658;9.272;2024-01-07T13:12:32;11.50;99.90
41168;DHT22;26906;45.658;9.272;2024-01-07T13:14:58;11.60;99.90
41168;DHT22;26906;45.658;9.272;2024-01-07T13:17:23;11.60;99.90
41168;DHT22;26906;45.658;9.272;2024-01-07T13:19:49;11.60;99.90
41168;DHT22;26906;45.658;9.272;2024-01-07T13:22:14;11.50;99.90
41168;DHT22;26906;45.658;9.272;2024-01-07T13:24:40;11.60;99.90
41168;DHT22;26906;45.658;9.272;2024-01-07T13:27:07;11.60;99.90
41168;DHT22;26906;45.658;9.272;2024-01-07T13:29:34;11.60;99.90
41168;DHT22;26906;45.658;9.272;2024-01-07T13:32:00;11.60;99.90
41168;DHT22;26906;45.658;9.272;2024-01-07T13:34:26;11.50;99.90
41168;DHT22;26906;45.658;9.272;2024-01-07T13:36:57;11.50;99.90
41168;DHT22;26906;45.658;9.272;2024-01-07T13:39:24;11.60;99.90
41168;DHT22;26906;45.658;9.272;2024-01-07T13:41:50;11.50;99.90
41168;DHT22;26906;45.658;9.272;2024-01-07T13:44:16;11.50;99.90
41168;DHT22;26906;45.658;9.272;2024-01-07T13:46:47;11.50;99.90
41168;DHT22;26906;45.658;9.272;2024-01-07T13:49:13;11.60;99.90
41168;DHT22;26906;45.658;9.272;2024-01-07T13:51:40;11.50;99.90
41168;DHT22;26906;45.658;9.272;2024-01-07T13:54:06;11.60;99.90
41168;DHT22;26906;45.658;9.272;2024-01-07T13:56:33;11.50;99.90
41168;DHT22;26906;45.658;9.272;2024-01-07T13:59:02;11.40;99.90
41168;DHT22;26906;45.658;9.272;2024-01-07T14:01:30;11.50;99.90
41168;DHT22;26906;45.658;9.272;2024-01-07T14:03:56;11.50;99.90
41168;DHT22;26906;45.658;9.272;2024-01-07T14:06:22;11.50;99.90
41168;DHT22;26906;45.658;9.272;2024-01-07T14:08:47;11.50;99.90
41168;DHT22;26906;45.658;9.272;2024-01-07T14:11:13;11.50;99.90
41168;DHT22;26906;45.658;9.272;2024-01-07T14:13:39;11.40;99.90
41168;DHT22;26906;45.658;9.272;2024-01-07T14:16:05;11.50;99.90
41168;DHT22;26906;45.658;9.272;2024-01-07T14:18:31;11.50;99.90
41168;DHT22;26906;45.658;9.272;2024-01-07T14:20:58;11.40;99.90
41168;DHT22;26906;45.658;9.272;2024-01-07T14:23:26;11.40;99.90
41168;DHT22;26906;45.658;9.272;2024-01-07T14:25:53;11.40;99.90
41168;DHT22;26906;45.658;9.272;2024-01-07T14:28:18;11.30;99.90
41168;DHT22;26906;45.658;9.272;2024-01-07T14:30:44;11.40;99.90
41168;DHT22;26906;45.658;9.272;2024-01-07T14:33:10;11.40;99.90
41168;DHT22;26906;45.658;9.272;2024-01-07T14:35:35;11.40;99.90
41168;DHT22;26906;45.658;9.272;2024-01-07T14:38:01;11.30;99.90
41168;DHT22;26906;45.658;9.272;2024-01-07T14:40:27;11.30;99.90
41168;DHT22;26906;45.658;9.272;2024-01-07T14:42:53;11.30;99.90
41168;DHT22;26906;45.658;9.272;2024-01-07T14:45:23;11.30;99.90
41168;DHT22;26906;45.658;9.272;2024-01-07T14:47:49;11.40;99.90
41168;DHT22;26906;45.658;9.272;2024-01-07T14:50:14;11.10;99.90
41168;DHT22;26906;45.658;9.272;2024-01-07T14:52:40;10.90;99.90
41168;DHT22;26906;45.658;9.272;2024-01-07T14:55:07;11.00;99.90
41168;DHT22;26906;45.658;9.272;2024-01-07T14:57:32;11.00;99.90
41168;DHT22;26906;45.658;9.272;2024-01-07T14:59:58;10.90;99.90
41168;DHT22;26906;45.658;9.272;2024-01-07T15:02:24;10.90;99.90
41168;DHT22;26906;45.658;9.272;2024-01-07T15:04:51;11.00;99.90
41168;DHT22;26906;45.658;9.272;2024-01-07T15:07:21;11.00;99.90
41168;DHT22;26906;45.658;9.272;2024-01-07T15:09:47;10.80;99.90
41168;DHT22;26906;45.658;9.272;2024-01-07T15:12:12;11.00;99.90
41168;DHT22;26906;45.658;9.272;2024-01-07T15:14:38;10.80;99.90
41168;DHT22;26906;45.658;9.272;2024-01-07T15:17:04;10.80;99.90
41168;DHT22;26906;45.658;9.272;2024-01-07T15:19:30;10.80;99.90
41168;DHT22;26906;45.658;9.272;2024-01-07T15:21:56;11.00;99.90
41168;DHT22;26906;45.658;9.272;2024-01-07T15:24:22;11.00;99.90
41168;DHT22;26906;45.658;9.272;2024-01-07T15:26:48;11.00;99.90
41168;DHT22;26906;45.658;9.272;2024-01-07T15:29:16;11.10;99.90
41168;DHT22;26906;45.658;9.272;2024-01-07T15:31:41;11.10;99.90
41168;DHT22;26906;45.658;9.272;2024-01-07T15:34:07;11.00;99.90
41168;DHT22;26906;45.658;9.272;2024-01-07T15:36:33;11.20;99.90
41168;DHT22;26906;45.658;9.272;2024-01-07T15:39:02;11.10;99.90
41168;DHT22;26906;45.658;9.272;2024-01-07T15:41:28;11.10;99.90
41168;DHT22;26906;45.658;9.272;2024-01-07T15:43:56;11.00;99.90
41168;DHT22;26906;45.658;9.272;2024-01-07T15:46:22;10.90;99.90
41168;DHT22;26906;45.658;9.272;2024-01-07T15:48:48;10.80;99.90
41168;DHT22;26906;45.658;9.272;2024-01-07T15:51:14;10.80;99.90
41168;DHT22;26906;45.658;9.272;2024-01-07T15:53:40;10.80;99.90
41168;DHT22;26906;45.658;9.272;2024-01-07T15:56:05;10.70;99.90
41168;DHT22;26906;45.658;9.272;2024-01-07T15:58:32;10.70;99.90
41168;DHT22;26906;45.658;9.272;2024-01-07T16:01:03;10.70;99.90
41168;DHT22;26906;45.658;9.272;2024-01-07T16:03:32;10.70;99.90
41168;DHT22;26906;45.658;9.272;2024-01-07T16:05:58;10.70;99.90
41168;DHT22;26906;45.658;9.272;2024-01-07T16:08:24;10.60;99.90
41168;DHT22;26906;45.658;9.272;2024-01-07T16:10:57;10.80;99.90
41168;DHT22;26906;45.658;9.272;2024-01-07T16:13:24;10.80;99.90
41168;DHT22;26906;45.658;9.272;2024-01-07T16:15:51;10.70;99.90
41168;DHT22;26906;45.658;9.272;2024-01-07T16:18:16;10.60;99.90
41168;DHT22;26906;45.658;9.272;2024-01-07T16:20:43;10.70;99.90
41168;DHT22;26906;45.658;9.272;2024-01-07T16:23:09;10.70;99.90
41168;DHT22;26906;45.658;9.272;2024-01-07T16:25:35;10.80;99.90
41168;DHT22;26906;45.658;9.272;2024-01-07T16:28:01;10.80;99.90
41168;DHT22;26906;45.658;9.272;2024-01-07T16:30:28;10.60;99.90
41168;DHT22;26906;45.658;9.272;2024-01-07T16:32:54;10.60;99.90
41168;DHT22;26906;45.658;9.272;2024-01-07T16:35:21;10.50;99.90
41168;DHT22;26906;45.658;9.272;2024-01-07T16:37:47;10.50;99.90
41168;DHT22;26906;45.658;9.272;2024-01-07T16:40:12;10.60;99.90
41168;DHT22;26906;45.658;9.272;2024-01-07T16:42:38;10.40;99.90
41168;DHT22;26906;45.658;9.272;2024-01-07T16:45:05;10.30;99.90
41168;DHT22;26906;45.658;9.272;2024-01-07T16:47:31;10.30;99.90
41168;DHT22;26906;45.658;9.272;2024-01-07T16:49:57;10.50;99.90
41168;DHT22;26906;45.658;9.272;2024-01-07T16:52:23;10.40;99.90
41168;DHT22;26906;45.658;9.272;2024-01-07T16:54:48;10.50;99.90
41168;DHT22;26906;45.658;9.272;2024-01-07T16:57:14;10.50;99.90
41168;DHT22;26906;45.658;9.272;2024-01-07T16:59:40;10.50;99.90
41168;DHT22;26906;45.658;9.272;2024-01-07T17:02:07;10.50;99.90
41168;DHT22;26906;45.658;9.272;2024-01-07T17:04:33;10.50;99.90
41168;DHT22;26906;45.658;9.272;2024-01-07T17:07:01;10.60;99.90
41168;DHT22;26906;45.658;9.272;2024-01-07T17:09:27;10.60;99.90
41168;DHT22;26906;45.658;9.272;2024-01-07T17:11:52;10.50;99.90
41168;DHT22;26906;45.658;9.272;2024-01-07T17:14:18;10.30;99.90
41168;DHT22;26906;45.658;9.272;2024-01-07T17:16:44;10.40;99.90
41168;DHT22;26906;45.658;9.272;2024-01-07T17:19:11;10.50;99.90
41168;DHT22;26906;45.658;9.272;2024-01-07T17:21:37;10.40;99.90
41168;DHT22;26906;45.658;9.272;2024-01-07T17:24:03;10.30;99.90
41168;DHT22;26906;45.658;9.272;2024-01-07T17:26:28;10.40;99.90
41168;DHT22;26906;45.658;9.272;2024-01-07T17:28:55;10.50;99.90
41168;DHT22;26906;45.658;9.272;2024-01-07T17:31:22;10.40;99.90
41168;DHT22;26906;45.658;9.272;2024-01-07T17:33:48;10.40;99.90
41168;DHT22;26906;45.658;9.272;2024-01-07T17:36:15;10.40;99.90
41168;DHT22;26906;45.658;9.272;2024-01-07T17:38:43;10.50;99.90
41168;DHT22;26906;45.658;9.272;2024-01-07T17:41:11;10.50;99.90
41168;DHT22;26906;45.658;9.272;2024-01-07T17:43:36;10.50;99.90
41168;DHT22;26906;45.658;9.272;2024-01-07T17:46:07;10.60;99.90
41168;DHT22;26906;45.658;9.272;2024-01-07T17:48:35;10.60;99.90
41168;DHT22;26906;45.658;9.272;2024-01-07T17:51:00;10.50;99.90
41168;DHT22;26906;45.658;9.272;2024-01-07T17:53:31;10.50;99.90
41168;DHT22;26906;45.658;9.272;2024-01-07T17:55:57;10.40;99.90
41168;DHT22;26906;45.658;9.272;2024-01-07T17:58:24;10.50;99.90
41168;DHT22;26906;45.658;9.272;2024-01-07T18:00:49;10.40;99.90
41168;DHT22;26906;45.658;9.272;2024-01-07T18:03:15;10.40;99.90
41168;DHT22;26906;45.658;9.272;2024-01-07T18:05:41;10.40;99.90
41168;DHT22;26906;45.658;9.272;2024-01-07T18:08:07;10.40;99.90
41168;DHT22;26906;45.658;9.272;2024-01-07T18:10:39;10.30;99.90
41168;DHT22;26906;45.658;9.272;2024-01-07T18:13:06;10.30;99.90
41168;DHT22;26906;45.658;9.272;2024-01-07T18:15:34;10.30;99.90
41168;DHT22;26906;45.658;9.272;2024-01-07T18:18:00;10.30;99.90
41168;DHT22;26906;45.658;9.272;2024-01-07T18:20:27;10.30;99.90
41168;DHT22;26906;45.658;9.272;2024-01-07T18:22:53;10.30;99.90
41168;DHT22;26906;45.658;9.272;2024-01-07T18:25:19;10.30;99.90
41168;DHT22;26906;45.658;9.272;2024-01-07T18:27:45;10.40;99.90
41168;DHT22;26906;45.658;9.272;2024-01-07T18:30:12;10.40;99.90
41168;DHT22;26906;45.658;9.272;2024-01-07T18:32:38;10.40;99.90
41168;DHT22;26906;45.658;9.272;2024-01-07T18:35:03;10.40;99.90
41168;DHT22;26906;45.658;9.272;2024-01-07T18:37:30;10.30;99.90
41168;DHT22;26906;45.658;9.272;2024-01-07T18:39:56;10.20;99.90
41168;DHT22;26906;45.658;9.272;2024-01-07T18:42:23;10.20;99.90
41168;DHT22;26906;45.658;9.272;2024-01-07T18:44:49;10.30;99.90
41168;DHT22;26906;45.658;9.272;2024-01-07T18:47:15;10.20;99.90
41168;DHT22;26906;45.658;9.272;2024-01-07T18:49:41;10.20;99.90
41168;DHT22;26906;45.658;9.272;2024-01-07T18:52:07;10.10;99.90
41168;DHT22;26906;45.658;9.272;2024-01-07T18:54:41;10.20;99.90
41168;DHT22;26906;45.658;9.272;2024-01-07T18:57:11;10.10;99.90
41168;DHT22;26906;45.658;9.272;2024-01-07T18:59:42;10.10;99.90
41168;DHT22;26906;45.658;9.272;2024-01-07T19:02:07;10.20;99.90
41168;DHT22;26906;45.658;9.272;2024-01-07T19:04:33;10.20;99.90
41168;DHT22;26906;45.658;9.272;2024-01-07T19:07:01;10.10;99.90
41168;DHT22;26906;45.658;9.272;2024-01-07T19:09:27;10.10;99.90
41168;DHT22;26906;45.658;9.272;2024-01-07T19:11:52;10.10;99.90
41168;DHT22;26906;45.658;9.272;2024-01-07T19:14:18;10.00;99.90
41168;DHT22;26906;45.658;9.272;2024-01-07T19:16:43;9.90;99.90
41168;DHT22;26906;45.658;9.272;2024-01-07T19:19:09;10.00;99.90
41168;DHT22;26906;45.658;9.272;2024-01-07T19:21:38;10.10;99.90
41168;DHT22;26906;45.658;9.272;2024-01-07T19:24:04;10.00;99.90
41168;DHT22;26906;45.658;9.272;2024-01-07T19:26:30;10.00;99.90
41168;DHT22;26906;45.658;9.272;2024-01-07T19:28:57;10.00;99.90
41168;DHT22;26906;45.658;9.272;2024-01-07T19:31:24;10.00;99.90
41168;DHT22;26906;45.658;9.272;2024-01-07T19:33:50;10.00;99.90
41168;DHT22;26906;45.658;9.272;2024-01-07T19:36:17;10.00;99.90
41168;DHT22;26906;45.658;9.272;2024-01-07T19:38:43;10.10;99.90
41168;DHT22;26906;45.658;9.272;2024-01-07T19:41:08;10.10;99.90
41168;DHT22;26906;45.658;9.272;2024-01-07T19:43:44;10.10;99.90
41168;DHT22;26906;45.658;9.272;2024-01-07T19:46:10;10.00;99.90
41168;DHT22;26906;45.658;9.272;2024-01-07T19:48:35;10.00;99.90
41168;DHT22;26906;45.658;9.272;2024-01-07T19:51:01;9.90;99.90
41168;DHT22;26906;45.658;9.272;2024-01-07T19:53:27;10.00;99.90
41168;DHT22;26906;45.658;9.272;2024-01-07T19:55:54;10.00;99.90
41168;DHT22;26906;45.658;9.272;2024-01-07T19:58:20;10.00;99.90
41168;DHT22;26906;45.658;9.272;2024-01-07T20:00:47;10.10;99.90
41168;DHT22;26906;45.658;9.272;2024-01-07T20:03:15;10.10;99.90
41168;DHT22;26906;45.658;9.272;2024-01-07T20:05:41;10.20;99.90
41168;DHT22;26906;45.658;9.272;2024-01-07T20:08:07;10.20;99.90
41168;DHT22;26906;45.658;9.272;2024-01-07T20:10:33;10.40;99.90
41168;DHT22;26906;45.658;9.272;2024-01-07T20:12:59;10.30;99.90
41168;DHT22;26906;45.658;9.272;2024-01-07T20:15:26;10.10;99.90
41168;DHT22;26906;45.658;9.272;2024-01-07T20:17:52;10.20;99.90
41168;DHT22;26906;45.658;9.272;2024-01-07T20:20:18;10.20;99.90
41168;DHT22;26906;45.658;9.272;2024-01-07T20:22:45;10.20;99.90
41168;DHT22;26906;45.658;9.272;2024-01-07T20:25:11;10.20;99.90
41168;DHT22;26906;45.658;9.272;2024-01-07T20:27:36;10.10;99.90
41168;DHT22;26906;45.658;9.272;2024-01-07T20:30:02;10.10;99.90
41168;DHT22;26906;45.658;9.272;2024-01-07T20:32:29;10.10;99.90
41168;DHT22;26906;45.658;9.272;2024-01-07T20:34:56;10.00;99.90
41168;DHT22;26906;45.658;9.272;2024-01-07T20:37:22;10.00;99.90
41168;DHT22;26906;45.658;9.272;2024-01-07T20:39:49;10.00;99.90
41168;DHT22;26906;45.658;9.272;2024-01-07T20:42:16;10.10;99.90
41168;DHT22;26906;45.658;9.272;2024-01-07T20:44:42;10.20;99.90
41168;DHT22;26906;45.658;9.272;2024-01-07T20:47:09;10.10;99.90
41168;DHT22;26906;45.658;9.272;2024-01-07T20:49:34;10.00;99.90
41168;DHT22;26906;45.658;9.272;2024-01-07T20:52:00;10.00;99.90
41168;DHT22;26906;45.658;9.272;2024-01-07T20:54:26;10.10;99.90
41168;DHT22;26906;45.658;9.272;2024-01-07T20:56:52;10.00;99.90
41168;DHT22;26906;45.658;9.272;2024-01-07T20:59:18;9.90;99.90
41168;DHT22;26906;45.658;9.272;2024-01-07T21:01:44;9.80;99.90
41168;DHT22;26906;45.658;9.272;2024-01-07T21:04:10;9.80;99.90
41168;DHT22;26906;45.658;9.272;2024-01-07T21:06:39;9.90;99.90
41168;DHT22;26906;45.658;9.272;2024-01-07T21:09:06;9.90;99.90
41168;DHT22;26906;45.658;9.272;2024-01-07T21:11:32;9.90;99.90
41168;DHT22;26906;45.658;9.272;2024-01-07T21:13:58;10.00;99.90
41168;DHT22;26906;45.658;9.272;2024-01-07T21:16:23;10.00;99.90
41168;DHT22;26906;45.658;9.272;2024-01-07T21:18:50;10.00;99.90
41168;DHT22;26906;45.658;9.272;2024-01-07T21:21:16;10.00;99.90
41168;DHT22;26906;45.658;9.272;2024-01-07T21:23:43;10.00;99.90
41168;DHT22;26906;45.658;9.272;2024-01-07T21:26:09;10.00;99.90
